createdAt,value
2022-11-25T00:03:12.231Z,22
2022-11-25T00:08:28.623Z,22
2022-11-25T00:13:45.107Z,22
2022-11-25T00:19:01.938Z,22
2022-11-25T00:24:18.426Z,22
2022-11-25T00:29:34.973Z,22
2022-11-25T00:34:51.459Z,22
2022-11-25T00:40:07.992Z,22
2022-11-25T00:45:24.488Z,21
2022-11-25T00:50:40.988Z,22
2022-11-25T00:55:57.450Z,23
2022-11-25T01:01:14.035Z,25
2022-11-25T01:06:30.451Z,24
2022-11-25T01:11:46.988Z,26
2022-11-25T01:17:03.493Z,29
2022-11-25T01:23:14.427Z,26
2022-11-25T01:28:30.957Z,20
2022-11-25T01:33:47.438Z,20
2022-11-25T01:39:03.930Z,18
2022-11-25T01:44:20.451Z,20
2022-11-25T01:49:36.957Z,23
2022-11-25T01:54:58.374Z,25
2022-11-25T02:00:14.823Z,27
2022-11-25T02:05:33.925Z,29
2022-11-25T02:10:47.857Z,30
2022-11-25T02:16:04.423Z,28
2022-11-25T02:21:20.837Z,30
2022-11-25T02:26:37.435Z,32
2022-11-25T02:31:54.532Z,31
2022-11-25T02:37:11.016Z,31
2022-11-25T02:42:27.522Z,29
2022-11-25T02:47:44.012Z,30
2022-11-25T02:53:03.334Z,30
2022-11-25T02:58:19.828Z,30
2022-11-25T03:03:36.393Z,32
2022-11-25T03:08:52.892Z,30
2022-11-25T03:14:09.345Z,30
2022-11-25T03:19:25.849Z,28
2022-11-25T03:24:42.337Z,23
2022-11-25T03:29:58.850Z,26
2022-11-25T03:35:15.311Z,26
2022-11-25T03:40:31.819Z,27
2022-11-25T03:45:48.345Z,24
2022-11-25T03:51:04.839Z,26
2022-11-25T03:56:21.325Z,24
2022-11-25T04:01:41.479Z,26
2022-11-25T04:06:54.367Z,25
2022-11-25T04:12:10.551Z,21
2022-11-25T04:17:27.046Z,21
2022-11-25T04:22:43.609Z,20
2022-11-25T04:28:00.084Z,23
2022-11-25T04:33:16.527Z,21
2022-11-25T04:38:33.031Z,19
2022-11-25T04:43:49.547Z,20
2022-11-25T04:49:05.980Z,21
2022-11-25T04:54:22.495Z,20
2022-11-25T04:59:39.352Z,21
2022-11-25T05:04:55.855Z,19
2022-11-25T05:10:12.428Z,19
2022-11-25T05:15:28.892Z,20
2022-11-25T05:20:45.951Z,20
2022-11-25T05:26:03.324Z,20
2022-11-25T05:31:19.972Z,18
2022-11-25T05:36:36.338Z,16
2022-11-25T05:41:52.789Z,16
2022-11-25T05:47:09.234Z,19
2022-11-25T05:52:25.729Z,20
2022-11-25T05:57:42.212Z,15
2022-11-25T06:02:58.868Z,20
2022-11-25T06:08:15.300Z,23
2022-11-25T06:13:31.735Z,24
2022-11-25T06:18:48.354Z,24
2022-11-25T06:24:05.211Z,25
2022-11-25T06:29:21.666Z,23
2022-11-25T06:34:38.421Z,27
2022-11-25T06:39:54.735Z,28
2022-11-25T06:45:11.215Z,28
2022-11-25T06:50:27.791Z,28
2022-11-25T06:55:44.295Z,24
2022-11-25T07:01:03.302Z,25
2022-11-25T07:06:19.776Z,29
2022-11-25T07:11:36.769Z,32
2022-11-25T07:16:53.257Z,37
2022-11-25T07:22:09.779Z,33
2022-11-25T07:27:26.311Z,32
2022-11-25T07:32:42.828Z,36
2022-11-25T07:37:59.471Z,40
2022-11-25T07:43:15.898Z,37
2022-11-25T07:48:32.142Z,39
2022-11-25T07:53:48.638Z,37
2022-11-25T07:59:05.201Z,37
2022-11-25T08:04:21.703Z,38
2022-11-25T08:09:38.683Z,38
2022-11-25T08:14:55.343Z,37
2022-11-25T08:20:11.607Z,34
2022-11-25T08:25:28.591Z,29
2022-11-25T08:30:45.120Z,25
2022-11-25T08:36:03.282Z,24
2022-11-25T08:41:19.776Z,23
2022-11-25T08:46:36.341Z,20
2022-11-25T08:51:52.700Z,20
2022-11-25T08:57:09.779Z,20
2022-11-25T09:02:26.273Z,16
2022-11-25T09:07:42.792Z,16
2022-11-25T09:12:59.389Z,14
2022-11-25T09:18:15.722Z,14
2022-11-25T09:23:32.214Z,13
2022-11-25T09:28:48.659Z,12
2022-11-25T09:34:05.124Z,11
2022-11-25T09:39:21.584Z,10
2022-11-25T09:44:38.068Z,10
2022-11-25T09:49:59.506Z,12
2022-11-25T09:55:16.023Z,9
2022-11-25T10:00:32.507Z,9
2022-11-25T10:05:49.692Z,9
2022-11-25T10:11:05.428Z,7
2022-11-25T10:16:21.886Z,7
2022-11-25T10:21:39.240Z,7
2022-11-25T10:26:54.694Z,8
2022-11-25T10:32:16.050Z,7
2022-11-25T10:37:37.450Z,10
2022-11-25T10:42:53.817Z,9
2022-11-25T10:48:10.269Z,8
2022-11-25T10:53:26.754Z,10
2022-11-25T10:58:43.284Z,8
2022-11-25T11:03:59.659Z,10
2022-11-25T11:09:21.086Z,10
2022-11-25T11:14:38.027Z,10
2022-11-25T11:19:54.180Z,9
2022-11-25T11:25:10.645Z,10
2022-11-25T11:30:27.108Z,14
2022-11-25T11:35:43.562Z,13
2022-11-25T11:41:00.011Z,12
2022-11-25T11:46:21.664Z,11
2022-11-25T11:51:32.910Z,11
2022-11-25T11:56:54.869Z,14
2022-11-25T12:02:05.871Z,11
2022-11-25T12:07:22.308Z,13
2022-11-25T12:12:38.657Z,14
2022-11-25T12:17:55.129Z,13
2022-11-25T12:23:11.544Z,11
2022-11-25T12:28:28.071Z,12
2022-11-25T12:33:44.546Z,13
2022-11-25T12:39:01.872Z,13
2022-11-25T12:44:18.365Z,13
2022-11-25T12:49:34.843Z,12
2022-11-25T12:54:51.313Z,20
2022-11-25T13:00:39.179Z,19
2022-11-25T13:05:40.219Z,21
2022-11-25T13:10:40.726Z,19
2022-11-25T13:15:57.879Z,19
2022-11-25T13:21:13.706Z,23
2022-11-25T13:26:30.143Z,20
2022-11-25T13:31:46.727Z,18
2022-11-25T13:37:03.102Z,18
2022-11-25T13:42:19.616Z,21
2022-11-25T13:47:36.878Z,19
2022-11-25T13:52:58.247Z,19
2022-11-25T13:58:14.740Z,17
2022-11-25T14:03:31.321Z,17
2022-11-25T14:08:47.704Z,20
2022-11-25T14:14:05.272Z,18
2022-11-25T14:19:55.346Z,17
2022-11-25T14:24:38.209Z,19
2022-11-25T14:29:55.275Z,21
2022-11-25T14:35:11.736Z,20
2022-11-25T14:40:28.268Z,18
2022-11-25T14:45:45.240Z,21
2022-11-25T14:51:01.865Z,20
2022-11-25T14:56:18.351Z,18
2022-11-25T15:01:34.858Z,22
2022-11-25T15:06:51.078Z,24
2022-11-25T15:12:08.005Z,22
2022-11-25T15:17:24.659Z,24
2022-11-25T15:22:40.960Z,26
2022-11-25T15:27:58.230Z,24
2022-11-25T15:33:14.743Z,24
2022-11-25T15:38:31.235Z,22
2022-11-25T15:43:47.708Z,21
2022-11-25T15:49:04.207Z,20
2022-11-25T15:54:20.695Z,20
2022-11-25T15:59:37.351Z,21
2022-11-25T16:04:53.635Z,21
2022-11-25T16:10:10.139Z,22
2022-11-25T16:15:26.790Z,22
2022-11-25T16:20:43.100Z,21
2022-11-25T16:26:01.911Z,21
2022-11-25T16:31:18.156Z,24
2022-11-25T16:36:34.962Z,29
2022-11-25T16:41:51.527Z,30
2022-11-25T16:47:08.748Z,32
2022-11-25T16:52:25.241Z,33
2022-11-25T16:57:41.775Z,34
2022-11-25T17:02:58.348Z,33
2022-11-25T17:08:14.836Z,36
2022-11-25T17:13:31.268Z,33
2022-11-25T17:18:47.890Z,32
2022-11-25T17:24:06.218Z,32
2022-11-25T17:29:22.727Z,33
2022-11-25T17:34:39.761Z,33
2022-11-25T17:39:55.805Z,40
2022-11-25T17:45:12.273Z,42
2022-11-25T17:50:28.555Z,39
2022-11-25T17:55:44.751Z,40
2022-11-25T18:01:02.236Z,40
2022-11-25T18:06:18.868Z,40
2022-11-25T18:11:35.221Z,40
2022-11-25T18:16:51.996Z,38
2022-11-25T18:22:08.435Z,43
2022-11-25T18:27:24.985Z,42
2022-11-25T18:32:42.055Z,40
2022-11-25T18:37:58.550Z,40
2022-11-25T18:43:15.104Z,44
2022-11-25T18:48:32.197Z,44
2022-11-25T18:53:49.243Z,45
2022-11-25T18:59:05.830Z,44
2022-11-25T19:04:22.145Z,48
2022-11-25T19:09:38.786Z,48
2022-11-25T19:14:55.142Z,48
2022-11-25T19:20:11.603Z,43
2022-11-25T19:25:28.785Z,43
2022-11-25T19:30:45.321Z,41
2022-11-25T19:36:01.849Z,39
2022-11-25T19:41:18.310Z,37
2022-11-25T19:46:52.577Z,36
2022-11-25T19:51:51.373Z,31
2022-11-25T19:57:07.908Z,33
2022-11-25T20:02:24.499Z,29
2022-11-25T20:07:41.020Z,34
2022-11-25T20:12:57.423Z,38
2022-11-25T20:18:17.789Z,36
2022-11-25T20:23:30.239Z,37
2022-11-25T20:28:46.789Z,38
2022-11-25T20:34:03.712Z,37
2022-11-25T20:39:20.213Z,34
2022-11-25T20:44:37.141Z,34
2022-11-25T20:49:53.006Z,37
2022-11-25T20:55:09.614Z,39
2022-11-25T21:00:26.045Z,40
2022-11-25T21:05:42.426Z,41
2022-11-25T21:10:59.540Z,41
2022-11-25T21:16:16.709Z,42
2022-11-25T21:21:32.939Z,43
2022-11-25T21:26:50.070Z,43
2022-11-25T21:32:06.441Z,42
2022-11-25T21:37:22.646Z,41
2022-11-25T21:42:38.920Z,43
2022-11-25T21:47:55.664Z,42
2022-11-25T21:53:12.240Z,40
2022-11-25T21:58:28.725Z,40
2022-11-25T22:03:45.842Z,41
2022-11-25T22:09:03.394Z,35
2022-11-25T22:14:19.947Z,34
2022-11-25T22:19:36.494Z,37
2022-11-25T22:24:53.606Z,43
2022-11-25T22:30:10.711Z,45
2022-11-25T22:35:27.181Z,46
2022-11-25T22:40:43.488Z,46
2022-11-25T22:46:01.995Z,47
2022-11-25T22:51:18.492Z,46
2022-11-25T22:56:34.706Z,46
2022-11-25T23:01:52.455Z,46
2022-11-25T23:07:08.974Z,48
2022-11-25T23:12:25.470Z,42
2022-11-25T23:17:42.560Z,45
2022-11-25T23:22:59.870Z,45
2022-11-25T23:28:16.503Z,43
2022-11-25T23:33:32.786Z,46
2022-11-25T23:38:49.305Z,45
2022-11-25T23:44:06.126Z,40
2022-11-25T23:49:22.636Z,41
2022-11-25T23:54:39.542Z,40
2022-11-25T23:59:56.451Z,42
